Ardenvoir, WA

11:59 AM PDT on August 20, 2014 (GMT -0700)
Entiat Valley | Change Station
CLOSE
Current Station
Personal Weather Station
Location: Entiat, WA
Elevation: 1050 ft
Nearby Weather Stations

Elev 1050 ft 47.70 °N, 120.33 °W | Updated 0 second ago

Clear
Clear
82.0 °F
Feels Like 81 °F
N
3.0
Wind Variable Wind from East
Gusts 4.0 mph

Today
High -- | Low -- °F
--% Chance of Precip.
Yesterday
High -- | Low -- °F
Precip. -- in
6:03 AM 8:04 PM
Waning Crescent, 20% visible
Pressure 29.80 in
Visibility 10.0 miles
Clouds Clear
Heat Index 81 °F
Dew Point 48 °F
Humidity 31%
Rainfall 0.00 in
Snow Depth Not available.
UV 7 out of 12
Pollen 4.20 out of 12
Air Quality Not available.
Flu Activity Not available.
SPECI KEAT 201811Z AUTO 30010KT 10SM CLR 26/07 A2980 RMK AO2 T02610072

More Conditions Fewer Conditions

Pressure 29.80 in
Visibility 10.0 miles
Clouds Clear
Heat Index 81 °F
Dew Point 48 °F
Humidity 31%
Rainfall 0.00 in
Snow Depth Not available.
UV 7 out of 12
Pollen 4.20 out of 12
Air Quality Not available.
Flu Activity Not available.
SPECI KEAT 201811Z AUTO 30010KT 10SM CLR 26/07 A2980 RMK AO2 T02610072

More Conditions Fewer Conditions

10-Day Weather Forecast

Almanac

Astronomy

Aug. 20, 2014 Rise Set
Actual Time 6:03 AM PDT 8:04 PM PDT
Civil Twilight 5:30 AM PDT 8:38 PM PDT
Nautical Twilight 4:49 AM PDT 9:19 PM PDT
Astronomical Twilight 4:03 AM PDT 10:04 PM PDT
Moon 1:40 AM PDT 5:01 PM PDT
Length of Visible Light 15h 07m
Length of Day
14h 01m
Tomorrow will be 3m 11s shorter.
Waning Crescent, 20% of the Moon is Illuminated
Today
Waning Crescent
Aug 25
New
Sep 2
First Quarter
Sep 8
Full
Sep 15
Last Quarter

Today's Extremes

State Highs State Lows

Community

WunderPhotos

Upload Photos

1,745,717 photos uploaded!

WunderBlogs® & News

By Dr. Jeff Masters
Director of Meteorology, Weather Underground
By Kari Strenfel
Meteorologist, Weather Underground
By Christopher C. Burt
Weather Historian, Weather Underground
August 20, 2014
August 20, 2014
August 20, 2014

Nearby

Snow Depth

Station Depth Elevation
Blewett Pass 0 in 4270 ft
Stevens Pass 0 in 4070 ft
Grouse Camp 0 in 5380 ft
Lyman Lake 0 in 5900 ft
Stampede Pass 1 in 3860 ft

Earthquake Activity

City Distance Mag. Time & Date
No recent earthquake activity has been reported nearby.
Minimum magnitude displayed is 2.5.

Coastal Water Temperatures

Place Temperature
No Stations Reporting

Nearby Weather Stations